Time;durP1;ratioP1;P1;durP2;ratioP2;P2;SDS_P1;SDS_P2;PMS_P1;PMS_P2;Temp;Humidity;BMP_temperature;BMP_pressure;BME280_temperature;BME280_humidity;BME280_pressure;Samples;Min_cycle;Max_cycle;Signal;HPM_P1;HPM_P2
2023/04/04 00:01:16;;;;;;;4.20;2.70;;;;;;;-0.57;88.41;99006.90;105639;1257;74193;-25
2023/04/04 00:03:50;;;;;;;2.30;1.50;;;;;;;-0.83;88.97;99010.20;105571;1257;75690;-25
2023/04/04 00:13:57;;;;;;;3.60;2.20;;;;;;;-0.56;87.50;99014.20;102669;1292;600207;-25
2023/04/04 00:16:26;;;;;;;3.90;2.50;;;;;;;-0.58;87.38;99018.70;105103;1269;61250;-25
2023/04/04 00:18:55;;;;;;;4.10;2.10;;;;;;;-0.86;88.02;99022.74;104925;1270;61953;-25
2023/04/04 00:21:26;;;;;;;3.60;2.40;;;;;;;-0.61;88.33;99022.20;105088;1269;73502;-25
2023/04/04 00:23:56;;;;;;;3.20;2.00;;;;;;;-0.47;87.15;99024.25;105079;1269;75796;-25
2023/04/04 00:26:25;;;;;;;5.20;3.00;;;;;;;-0.57;86.85;99019.52;103147;1267;2335994;-25
2023/04/04 00:28:55;;;;;;;3.60;2.50;;;;;;;-0.67;87.64;99020.21;105180;1263;61787;-25
2023/04/04 00:31:23;;;;;;;3.50;2.60;;;;;;;-0.75;87.57;99020.31;105255;1264;61793;-25
2023/04/04 00:33:52;;;;;;;3.60;1.80;;;;;;;-0.85;88.26;99019.48;105190;1263;73938;-25
2023/04/04 00:36:22;;;;;;;3.40;2.00;;;;;;;-0.64;87.92;99026.94;105644;1257;75820;-25
2023/04/04 00:38:51;;;;;;;2.50;2.20;;;;;;;-0.32;86.31;99033.27;105626;1257;72031;-25
2023/04/04 00:41:20;;;;;;;4.90;2.60;;;;;;;-0.36;85.87;99036.83;105572;1257;61053;-25
2023/04/04 00:43:48;;;;;;;3.80;2.80;;;;;;;-0.65;86.55;99033.45;105436;1257;61138;-25
2023/04/04 00:46:17;;;;;;;4.00;2.60;;;;;;;-0.88;87.34;99031.16;105373;1263;73565;-25
2023/04/04 00:48:46;;;;;;;3.10;2.40;;;;;;;-0.93;88.28;99025.19;105568;1257;75493;-25
2023/04/04 00:51:15;;;;;;;3.10;2.40;;;;;;;-0.56;87.32;99026.13;105556;1257;74176;-25
2023/04/04 00:53:45;;;;;;;3.60;2.60;;;;;;;-0.23;85.95;99022.70;105624;1261;61968;-25
2023/04/04 00:56:14;;;;;;;3.30;2.60;;;;;;;-0.56;85.76;99022.21;105435;1262;61889;-26
2023/04/04 00:58:46;;;;;;;2.40;2.10;;;;;;;-0.77;87.08;99021.58;105543;1257;74508;-25
2023/04/04 01:01:15;;;;;;;4.70;2.00;;;;;;;-0.67;87.08;99025.84;105611;1263;74581;-25
2023/04/04 01:03:47;;;;;;;3.90;2.40;;;;;;;-0.52;86.45;99021.21;105622;1257;73864;-25
2023/04/04 01:06:16;;;;;;;3.60;2.70;;;;;;;-0.37;85.74;99025.26;105557;1257;61066;-25
2023/04/04 01:08:45;;;;;;;3.60;1.70;;;;;;;-0.46;85.45;99026.29;105591;1263;61061;-26
2023/04/04 01:11:15;;;;;;;2.10;1.70;;;;;;;-0.25;85.35;99033.37;105589;1261;74269;-25
2023/04/04 01:13:44;;;;;;;2.60;1.80;;;;;;;-0.58;85.60;99036.25;105597;1256;75859;-25
2023/04/04 01:16:16;;;;;;;6.50;3.00;;;;;;;-0.83;86.67;99041.23;105626;1262;74276;-25
2023/04/04 01:18:45;;;;;;;2.60;2.10;;;;;;;-0.77;87.27;99042.91;105655;1257;62768;-25
2023/04/04 01:21:15;;;;;;;5.10;2.20;;;;;;;-0.32;85.75;99038.90;105600;1262;61055;-26
2023/04/04 01:23:50;;;;;;;6.10;2.50;;;;;;;-0.30;84.99;99034.73;105382;1262;74545;-25
2023/04/04 01:26:20;;;;;;;3.00;2.30;;;;;;;-0.74;85.94;99033.08;105638;1261;74624;-25
2023/04/04 01:28:49;;;;;;;5.30;2.70;;;;;;;-0.80;86.42;99024.93;105553;1262;74110;-25
2023/04/04 01:31:22;;;;;;;4.40;2.50;;;;;;;-1.01;87.22;99024.96;105582;1259;61173;-25
2023/04/04 01:34:09;;;;;;;2.70;2.10;;;;;;;-0.88;86.89;99022.30;105543;1258;61160;-25
2023/04/04 01:36:43;;;;;;;5.10;2.90;;;;;;;-0.72;86.12;99025.00;105558;1257;74565;-25
2023/04/04 01:39:14;;;;;;;3.20;2.00;;;;;;;-0.65;85.85;99019.63;105546;1256;75812;-25
2023/04/04 01:41:43;;;;;;;5.70;3.10;;;;;;;-0.99;86.62;99019.80;105608;1257;73957;-25
2023/04/04 01:44:14;;;;;;;4.60;3.30;;;;;;;-1.17;87.34;99019.52;105499;1257;61183;-25
2023/04/04 01:46:43;;;;;;;5.20;2.50;;;;;;;-1.00;87.61;99020.48;105542;1257;61616;-26
2023/04/04 01:49:17;;;;;;;4.00;2.40;;;;;;;-0.74;86.84;99014.48;105571;1261;74418;-25
2023/04/04 01:51:45;;;;;;;3.60;2.70;;;;;;;-0.74;85.96;99008.69;105618;1257;74728;-25
2023/04/04 01:54:15;;;;;;;2.80;2.00;;;;;;;-0.90;85.98;99007.73;105340;1264;74126;-25
2023/04/04 01:56:45;;;;;;;5.30;2.80;;;;;;;-0.94;86.45;99013.31;105645;1257;61108;-26
2023/04/04 01:59:14;;;;;;;3.20;2.90;;;;;;;-1.05;87.20;99015.20;105466;1262;61230;-25
2023/04/04 02:01:43;;;;;;;2.60;2.00;;;;;;;-0.86;86.61;99013.70;105626;1257;74522;-25
2023/04/04 02:04:13;;;;;;;4.10;2.60;;;;;;;-0.78;85.20;99008.81;105622;1257;75925;-25
2023/04/04 02:06:46;;;;;;;3.40;2.50;;;;;;;-0.79;85.62;99017.05;105466;1257;73264;-25
2023/04/04 02:09:15;;;;;;;3.80;2.50;;;;;;;-0.70;85.44;99013.48;105647;1257;61061;-25
2023/04/04 02:11:44;;;;;;;3.50;2.40;;;;;;;-0.80;85.56;99014.52;105508;1261;61759;-26
2023/04/04 02:14:13;;;;;;;3.70;2.60;;;;;;;-0.84;86.52;99021.64;105627;1257;72186;-25
2023/04/04 02:16:42;;;;;;;5.40;3.00;;;;;;;-0.32;85.39;99021.84;105397;1263;75436;-25
2023/04/04 02:19:11;;;;;;;5.50;2.40;;;;;;;-0.01;83.36;99025.98;105532;1257;74010;-25
2023/04/04 02:21:41;;;;;;;3.00;2.10;;;;;;;-0.12;83.31;99027.08;105590;1257;61696;-26
2023/04/04 02:24:10;;;;;;;4.70;3.10;;;;;;;-0.61;84.70;99029.02;105563;1257;60991;-25
2023/04/04 02:26:38;;;;;;;5.70;3.00;;;;;;;-0.81;85.58;99035.15;105339;1257;74628;-25
2023/04/04 02:29:07;;;;;;;2.20;1.60;;;;;;;-0.97;87.11;99037.11;105299;1262;75688;-25
2023/04/04 02:31:36;;;;;;;6.10;3.30;;;;;;;-0.77;86.29;99040.00;105516;1257;74069;-25
2023/04/04 02:34:05;;;;;;;3.70;2.30;;;;;;;-0.63;84.94;99042.92;105633;1257;61942;-25
2023/04/04 02:36:36;;;;;;;3.60;2.40;;;;;;;-0.30;84.06;99043.44;105585;1263;61584;-25
2023/04/04 02:39:05;;;;;;;3.00;2.30;;;;;;;-0.34;84.36;99037.27;105589;1262;74494;-25
2023/04/04 02:41:36;;;;;;;3.30;2.90;;;;;;;-0.68;84.82;99030.82;105579;1263;74948;-25
2023/04/04 02:44:07;;;;;;;6.50;3.50;;;;;;;-0.99;86.22;99033.06;105451;1261;72951;-25
2023/04/04 02:46:36;;;;;;;3.20;2.50;;;;;;;-1.03;86.78;99035.62;105312;1262;61186;-26
2023/04/04 02:49:06;;;;;;;3.90;2.90;;;;;;;-0.69;86.01;99041.42;105488;1263;61625;-25
2023/04/04 02:51:35;;;;;;;3.60;2.30;;;;;;;-0.79;85.04;99041.77;105659;1260;74566;-25
2023/04/04 02:54:04;;;;;;;3.90;2.80;;;;;;;-0.60;84.56;99040.61;105636;1261;75141;-25
2023/04/04 02:56:38;;;;;;;3.70;2.50;;;;;;;-1.02;86.06;99033.33;105257;1257;73953;-25
2023/04/04 02:59:07;;;;;;;4.50;2.10;;;;;;;-1.15;87.49;99033.09;105286;1257;61122;-26
2023/04/04 03:01:36;;;;;;;2.50;2.30;;;;;;;-0.93;86.25;99027.39;105456;1262;61999;-26
2023/04/04 03:04:06;;;;;;;3.40;2.60;;;;;;;-0.90;85.31;99028.33;105486;1257;73619;-25
2023/04/04 03:06:36;;;;;;;3.30;1.90;;;;;;;-0.76;85.21;99027.70;105620;1262;73856;-25
2023/04/04 03:09:05;;;;;;;5.30;2.60;;;;;;;-0.72;84.83;99024.83;105620;1257;73532;-25
2023/04/04 03:11:33;;;;;;;4.80;3.00;;;;;;;-1.10;85.28;99029.19;105648;1258;61081;-26
2023/04/04 03:14:03;;;;;;;6.40;2.40;;;;;;;-1.20;86.52;99029.52;105564;1258;62030;-26
2023/04/04 03:16:37;;;;;;;3.00;2.00;;;;;;;-0.93;86.09;99031.02;105595;1257;74360;-25
2023/04/04 03:19:06;;;;;;;3.00;1.50;;;;;;;-0.79;84.97;99029.66;105628;1257;74783;-25
2023/04/04 03:21:36;;;;;;;5.80;2.40;;;;;;;-0.61;84.33;99031.77;105502;1262;73133;-25
2023/04/04 03:24:05;;;;;;;5.10;3.10;;;;;;;-0.83;83.95;99024.83;105432;1257;61109;-26
2023/04/04 03:26:33;;;;;;;6.30;2.40;;;;;;;-1.15;86.10;99023.05;105553;1262;61099;-25
2023/04/04 03:29:03;;;;;;;4.50;2.30;;;;;;;-1.30;86.22;99015.36;105522;1262;75118;-25
2023/04/04 03:31:32;;;;;;;3.60;2.00;;;;;;;-1.01;85.70;99012.88;105640;1262;74898;-25
2023/04/04 03:34:01;;;;;;;4.30;2.50;;;;;;;-0.83;84.22;99007.63;105618;1257;74207;-25
2023/04/04 03:36:30;;;;;;;5.80;2.90;;;;;;;-0.86;84.00;99008.09;105669;1257;61072;-25
2023/04/04 03:38:59;;;;;;;3.80;2.60;;;;;;;-1.13;84.77;99008.34;105496;1258;61035;-25
2023/04/04 03:41:28;;;;;;;5.80;3.60;;;;;;;-1.25;86.07;99008.21;105599;1257;74604;-26
2023/04/04 03:43:56;;;;;;;4.30;2.70;;;;;;;-1.43;86.61;99005.73;105550;1261;75587;-25
2023/04/04 03:46:25;;;;;;;3.40;2.80;;;;;;;-1.22;86.56;99005.40;105541;1262;74245;-25
2023/04/04 03:48:55;;;;;;;2.90;2.40;;;;;;;-0.99;84.85;98998.80;105401;1260;61064;-25
2023/04/04 03:51:24;;;;;;;3.50;2.50;;;;;;;-1.01;84.61;98993.80;105553;1262;61156;-26
2023/04/04 03:53:53;;;;;;;3.80;2.70;;;;;;;-1.13;85.07;98994.88;105549;1257;72929;-26
2023/04/04 03:56:32;;;;;;;3.60;2.60;;;;;;;-1.20;85.96;98997.34;105571;1262;75700;-25
2023/04/04 03:59:05;;;;;;;4.00;2.90;;;;;;;-1.41;85.78;98996.13;105417;1263;74107;-25
2023/04/04 04:01:33;;;;;;;2.60;2.30;;;;;;;-1.06;84.67;98988.67;105459;1263;61173;-26
2023/04/04 04:04:05;;;;;;;4.30;2.30;;;;;;;-0.84;83.01;98984.52;105558;1263;61673;-26
2023/04/04 04:06:34;;;;;;;2.60;2.30;;;;;;;-1.12;82.56;98986.33;105549;1262;73603;-26
2023/04/04 04:09:02;;;;;;;3.50;2.10;;;;;;;-1.22;83.23;98994.48;105677;1257;75754;-25
2023/04/04 04:11:32;;;;;;;3.80;3.00;;;;;;;-1.41;84.72;98995.83;105562;1262;73007;-26
2023/04/04 04:14:01;;;;;;;3.00;2.40;;;;;;;-1.40;84.74;98994.08;105192;1258;62765;-25
2023/04/04 04:16:30;;;;;;;4.00;2.30;;;;;;;-1.22;83.45;98986.13;105455;1263;61067;-26
2023/04/04 04:19:01;;;;;;;5.40;3.40;;;;;;;-0.94;82.26;98983.33;105296;1257;73252;-25
2023/04/04 04:21:37;;;;;;;4.70;3.30;;;;;;;-1.10;82.74;98984.89;105517;1263;75501;-25
2023/04/04 04:24:07;;;;;;;8.70;5.40;;;;;;;-1.17;84.08;98992.43;105576;1262;74234;-25
2023/04/04 04:26:36;;;;;;;3.90;2.30;;;;;;;-1.19;84.86;99000.02;105368;1263;61757;-26
2023/04/04 04:29:06;;;;;;;5.20;3.30;;;;;;;-1.15;84.45;99007.20;105608;1258;61061;-25
2023/04/04 04:31:38;;;;;;;4.20;2.70;;;;;;;-1.06;83.12;99014.90;105270;1257;74771;-25
2023/04/04 04:34:07;;;;;;;3.70;2.70;;;;;;;-0.75;82.36;99022.55;105570;1263;74767;-26
2023/04/04 04:36:37;;;;;;;4.70;2.70;;;;;;;-0.86;82.12;99027.86;105470;1258;74173;-25
2023/04/04 04:39:26;;;;;;;4.90;3.20;;;;;;;-1.07;82.53;99033.69;105514;1261;61360;-26
2023/04/04 04:42:15;;;;;;;3.10;2.60;;;;;;;-1.38;82.69;99038.98;105347;1264;61894;-25
2023/04/04 04:44:48;;;;;;;;;;;;;;;-1.41;83.73;99053.02;105338;1263;74341;-25
2023/04/04 04:47:17;;;;;;;3.80;2.90;;;;;;;-0.89;82.34;99065.12;105588;1270;75854;-26
2023/04/04 04:49:48;;;;;;;4.40;2.40;;;;;;;-0.66;80.98;99071.50;105518;1258;74218;-25
2023/04/04 04:52:20;;;;;;;4.70;2.20;;;;;;;-0.58;80.00;99078.38;105161;1263;61067;-25
2023/04/04 04:54:54;;;;;;;4.50;3.10;;;;;;;-0.70;80.14;99075.38;105363;1261;61482;-26
2023/04/04 04:57:23;;;;;;;4.90;3.00;;;;;;;-1.15;81.65;99071.59;105526;1264;74149;-26
2023/04/04 04:59:53;;;;;;;3.70;1.90;;;;;;;-1.26;82.86;99074.01;105589;1263;75797;-26
2023/04/04 05:02:26;;;;;;;2.20;1.90;;;;;;;-1.32;82.64;99066.86;105523;1262;73265;-26
2023/04/04 05:04:57;;;;;;;2.60;1.90;;;;;;;-1.01;81.68;99072.17;105335;1258;61730;-25
2023/04/04 05:07:27;;;;;;;4.00;2.30;;;;;;;-1.01;80.97;99075.23;105563;1263;61866;-25
2023/04/04 05:09:59;;;;;;;2.90;2.40;;;;;;;-0.97;80.82;99080.20;105555;1257;75379;-25
2023/04/04 05:12:28;;;;;;;5.70;3.00;;;;;;;-1.17;81.39;99075.44;105628;1257;74924;-26
2023/04/04 05:14:57;;;;;;;4.90;2.80;;;;;;;-1.24;81.84;99082.30;105647;1262;73907;-25
2023/04/04 05:17:28;;;;;;;3.70;2.40;;;;;;;-1.46;82.41;99085.88;105590;1257;61065;-26
2023/04/04 05:20:02;;;;;;;5.10;2.50;;;;;;;-1.14;82.10;99084.70;105628;1257;61164;-26
2023/04/04 05:22:30;;;;;;;3.00;1.20;;;;;;;-0.53;79.76;99085.55;105557;1266;74379;-26
2023/04/04 05:25:06;;;;;;;2.40;1.80;;;;;;;-0.63;79.37;99088.11;105518;1271;75671;-26
2023/04/04 05:27:35;;;;;;;3.20;2.20;;;;;;;-0.69;79.76;99085.75;105545;1263;73986;-25
2023/04/04 05:30:06;;;;;;;4.70;2.20;;;;;;;-1.07;80.82;99080.71;105640;1261;61178;-26
2023/04/04 05:32:44;;;;;;;4.30;3.30;;;;;;;-1.19;82.48;99078.40;105588;1262;61712;-26
2023/04/04 05:35:24;;;;;;;10.30;5.70;;;;;;;-1.39;83.04;99074.95;105636;1261;75118;-26
2023/04/04 05:37:53;;;;;;;3.50;2.50;;;;;;;-1.05;82.74;99072.81;105656;1267;75694;-25
2023/04/04 05:40:24;;;;;;;2.70;2.10;;;;;;;-0.78;81.41;99067.98;105611;1262;73871;-25
2023/04/04 05:43:03;;;;;;;3.20;2.60;;;;;;;-0.78;80.97;99069.52;105614;1259;60972;-26
2023/04/04 05:45:40;;;;;;;4.20;3.00;;;;;;;-1.07;81.19;99064.02;105528;1271;61471;-26
2023/04/04 05:48:10;;;;;;;3.40;2.60;;;;;;;-1.20;82.07;99057.63;105489;1257;74299;-26
2023/04/04 05:50:47;;;;;;;3.50;2.30;;;;;;;-1.50;82.95;99051.09;105349;1263;75829;-26
2023/04/04 05:53:17;;;;;;;5.90;2.90;;;;;;;-1.30;83.25;99047.23;105518;1257;73976;-26
2023/04/04 05:55:54;;;;;;;3.30;2.50;;;;;;;-0.93;81.64;99050.23;105436;1263;61260;-25
2023/04/04 05:58:36;;;;;;;3.70;2.90;;;;;;;-0.76;80.81;99052.92;105514;1259;62029;-26
2023/04/04 06:01:06;;;;;;;3.20;2.90;;;;;;;-1.05;81.19;99049.63;105423;1260;75515;-25
2023/04/04 06:03:36;;;;;;;3.50;2.80;;;;;;;-1.30;81.93;99048.77;105165;1264;74537;-26
2023/04/04 06:06:09;;;;;;;6.10;3.50;;;;;;;-1.59;83.55;99049.17;105394;1260;73172;-25
2023/04/04 06:08:38;;;;;;;6.10;2.60;;;;;;;-1.59;83.69;99050.88;105462;1263;61729;-26
2023/04/04 06:11:21;;;;;;;3.70;2.30;;;;;;;-1.34;82.96;99046.34;105606;1257;61054;-26
2023/04/04 06:13:53;;;;;;;3.80;2.80;;;;;;;-1.09;81.64;99041.94;105581;1263;75419;-26
2023/04/04 06:16:24;;;;;;;3.30;2.00;;;;;;;-1.13;81.58;99041.73;105649;1257;75914;-26
2023/04/04 06:18:53;;;;;;;3.60;2.80;;;;;;;-1.16;80.20;99042.68;105389;1266;74125;-26
2023/04/04 06:21:22;;;;;;;2.50;2.20;;;;;;;-1.63;81.28;99041.95;105631;1260;61153;-26
2023/04/04 06:23:51;;;;;;;3.60;2.60;;;;;;;-1.62;81.53;99042.61;105634;1264;61531;-26
2023/04/04 06:26:20;;;;;;;1.80;1.50;;;;;;;-1.66;82.31;99045.45;105634;1260;75037;-26
2023/04/04 06:28:50;;;;;;;2.70;2.30;;;;;;;-1.39;81.64;99048.03;105421;1262;75889;-26
2023/04/04 06:31:23;;;;;;;;;;;;;;;-1.13;80.57;99045.98;105343;1262;73163;-26
2023/04/04 06:33:53;;;;;;;2.90;2.30;;;;;;;-1.05;79.85;99044.86;105211;1261;61180;-26
2023/04/04 06:36:23;;;;;;;9.00;5.00;;;;;;;-1.30;80.63;99041.78;105188;1259;61826;-26
2023/04/04 06:38:54;;;;;;;4.70;3.20;;;;;;;-1.29;80.88;99041.73;105408;1262;75208;-26
2023/04/04 06:41:23;;;;;;;1.90;1.80;;;;;;;-1.42;82.01;99038.41;105568;1264;75787;-25
2023/04/04 06:43:53;;;;;;;3.20;2.40;;;;;;;-1.06;81.54;99040.64;105623;1261;73951;-26
2023/04/04 06:46:21;;;;;;;5.70;3.30;;;;;;;-1.12;80.39;99046.27;105552;1259;61069;-26
2023/04/04 06:48:50;;;;;;;36.50;16.80;;;;;;;-1.05;79.84;99042.84;105382;1269;62024;-25
2023/04/04 06:51:20;;;;;;;21.90;9.20;;;;;;;-1.21;79.63;99041.81;105327;1257;75444;-26
2023/04/04 06:53:50;;;;;;;14.20;6.90;;;;;;;-1.33;80.03;99040.31;105616;1257;76026;-25
2023/04/04 06:56:19;;;;;;;19.80;10.00;;;;;;;-1.53;81.11;99043.02;105610;1259;73879;-26
2023/04/04 06:58:53;;;;;;;3.40;2.60;;;;;;;-1.22;82.14;99047.48;105508;1263;62986;-26
2023/04/04 07:01:23;;;;;;;4.70;3.00;;;;;;;-1.05;80.79;99047.43;105640;1262;62072;-26
2023/04/04 07:03:55;;;;;;;4.10;2.40;;;;;;;-0.95;79.36;99050.14;105630;1260;75373;-26
2023/04/04 07:06:25;;;;;;;14.00;6.80;;;;;;;-0.88;79.71;99060.13;105594;1262;75665;-26
2023/04/04 07:08:54;;;;;;;35.40;12.70;;;;;;;-0.93;79.50;99061.16;105462;1263;73527;-26
2023/04/04 07:11:23;;;;;;;30.60;12.30;;;;;;;-0.98;80.13;99060.66;105317;1261;61198;-27
2023/04/04 07:13:52;;;;;;;4.60;2.90;;;;;;;-1.01;80.26;99062.30;105170;1264;61779;-26
2023/04/04 07:16:21;;;;;;;4.90;2.50;;;;;;;-1.20;80.38;99062.73;105221;1264;75368;-26
2023/04/04 07:18:49;;;;;;;3.20;2.30;;;;;;;-0.90;79.66;99064.11;105200;1261;75902;-26
2023/04/04 07:21:21;;;;;;;2.60;1.80;;;;;;;-0.51;79.67;99066.55;105206;1261;72988;-26
2023/04/04 07:23:52;;;;;;;2.10;1.30;;;;;;;-0.54;78.88;99071.77;105358;1257;61090;-26
2023/04/04 07:26:21;;;;;;;3.90;3.10;;;;;;;-0.77;79.16;99073.07;105405;1262;61677;-26
2023/04/04 07:28:49;;;;;;;4.80;2.20;;;;;;;-0.82;80.39;99076.30;105411;1261;74385;-26
2023/04/04 07:31:18;;;;;;;4.50;2.80;;;;;;;-0.93;79.66;99079.73;105564;1260;75995;-26
2023/04/04 07:33:47;;;;;;;3.00;2.10;;;;;;;-1.04;80.72;99072.09;105506;1258;74236;-26
2023/04/04 07:36:15;;;;;;;5.10;2.90;;;;;;;-0.93;80.72;99072.73;105179;1261;61627;-26
2023/04/04 07:38:48;;;;;;;3.40;2.80;;;;;;;-0.84;79.86;99078.57;105325;1261;61865;-26
2023/04/04 07:41:17;;;;;;;3.80;3.10;;;;;;;-0.60;78.93;99079.14;105435;1260;75344;-26
2023/04/04 07:43:46;;;;;;;2.30;1.80;;;;;;;-0.70;77.99;99073.66;105193;1260;75789;-26
2023/04/04 07:46:14;;;;;;;4.10;2.80;;;;;;;-0.75;79.72;99072.48;105212;1257;73260;-26
2023/04/04 07:48:43;;;;;;;7.60;2.70;;;;;;;-0.86;79.63;99074.88;105246;1263;61610;-26
2023/04/04 07:51:12;;;;;;;3.20;2.50;;;;;;;-1.02;80.33;99074.77;105355;1262;61493;-26
2023/04/04 07:53:41;;;;;;;3.20;2.00;;;;;;;-0.92;79.87;99071.01;105216;1263;75689;-26
2023/04/04 07:56:17;;;;;;;4.00;2.50;;;;;;;-0.53;80.12;99070.70;105133;1270;75660;-26
2023/04/04 07:58:47;;;;;;;4.20;2.50;;;;;;;-0.30;78.76;99070.20;105214;1258;74263;-26
2023/04/04 08:01:16;;;;;;;4.20;2.00;;;;;;;-0.46;79.01;99075.56;105223;1258;61064;-26
2023/04/04 08:03:46;;;;;;;4.60;3.40;;;;;;;-0.57;79.77;99075.11;105352;1258;61710;-26
2023/04/04 08:06:15;;;;;;;6.00;4.00;;;;;;;-0.60;79.33;99067.88;105543;1257;75204;-26
2023/04/04 08:08:45;;;;;;;5.20;2.90;;;;;;;-0.78;80.53;99065.95;105566;1270;75854;-26
2023/04/04 08:11:14;;;;;;;4.20;2.80;;;;;;;-0.67;80.24;99069.16;105475;1257;74138;-26
2023/04/04 08:13:43;;;;;;;3.40;2.20;;;;;;;-0.30;78.68;99064.45;105566;1262;61136;-27
2023/04/04 08:16:11;;;;;;;3.80;2.50;;;;;;;-0.25;79.15;99065.77;105492;1261;61657;-26
2023/04/04 08:18:41;;;;;;;3.20;2.10;;;;;;;-0.38;79.30;99064.71;105374;1257;74463;-26
2023/04/04 08:21:13;;;;;;;4.30;3.10;;;;;;;-0.44;80.07;99069.20;105195;1263;74166;-26
2023/04/04 08:23:45;;;;;;;3.70;2.60;;;;;;;-0.55;80.03;99068.70;105506;1257;74007;-26
2023/04/04 08:26:14;;;;;;;3.00;2.20;;;;;;;-0.76;81.41;99067.21;105595;1258;61093;-26
2023/04/04 08:28:44;;;;;;;3.20;2.30;;;;;;;-0.61;81.99;99067.05;105220;1257;61119;-26
2023/04/04 08:31:13;;;;;;;3.30;2.30;;;;;;;-0.19;80.15;99063.88;105437;1260;75025;-26
2023/04/04 08:33:42;;;;;;;2.70;2.00;;;;;;;-0.24;78.69;99060.45;105347;1258;75827;-26
2023/04/04 08:36:15;;;;;;;3.50;3.00;;;;;;;-0.25;78.40;99057.60;105141;1258;74201;-26
2023/04/04 08:41:22;;;;;;;4.00;2.60;;;;;;;-0.79;81.19;99057.11;102712;1292;601020;-26
2023/04/04 08:43:55;;;;;;;3.70;3.00;;;;;;;-0.68;80.83;99060.67;104858;1264;62051;-26
2023/04/04 08:46:24;;;;;;;1.80;1.60;;;;;;;-0.76;81.28;99061.10;104852;1264;61047;-26
2023/04/04 08:48:54;;;;;;;14.50;5.70;;;;;;;-0.23;80.32;99062.81;105168;1268;73437;-26
2023/04/04 08:51:23;;;;;;;5.40;3.90;;;;;;;-0.11;78.63;99064.09;104868;1266;75659;-26
2023/04/04 08:53:53;;;;;;;4.80;3.80;;;;;;;-0.48;79.61;99068.83;103251;1270;2206583;-27
2023/04/04 08:56:22;;;;;;;4.80;3.40;;;;;;;-0.71;80.64;99071.49;104863;1271;61193;-26
2023/04/04 08:58:50;;;;;;;4.40;3.00;;;;;;;-0.70;80.90;99065.99;105206;1262;61167;-26
2023/04/04 09:01:19;;;;;;;3.80;2.60;;;;;;;-0.60;80.91;99067.35;105202;1262;73921;-26
2023/04/04 09:03:57;;;;;;;4.00;2.20;;;;;;;-0.68;80.39;99059.80;105121;1263;75828;-26
2023/04/04 09:06:26;;;;;;;3.50;2.60;;;;;;;-0.32;79.75;99060.58;105214;1263;73146;-26
2023/04/04 09:08:56;;;;;;;4.00;3.00;;;;;;;-0.22;78.18;99056.30;105114;1263;61046;-26
2023/04/04 09:11:25;;;;;;;2.30;1.80;;;;;;;-0.10;78.88;99065.40;104870;1271;61897;-26
2023/04/04 09:13:53;;;;;;;2.40;2.20;;;;;;;-0.16;78.09;99065.80;104872;1263;74605;-26
2023/04/04 09:16:22;;;;;;;5.10;3.30;;;;;;;-0.31;79.58;99067.38;105176;1265;74697;-26
2023/04/04 09:18:51;;;;;;;4.70;3.30;;;;;;;-0.39;80.55;99071.90;105181;1264;74113;-26
2023/04/04 09:21:22;;;;;;;2.80;2.10;;;;;;;-0.44;80.50;99069.90;105126;1262;62693;-26
2023/04/04 09:23:59;;;;;;;2.50;1.80;;;;;;;-0.18;79.11;99071.16;105090;1264;61603;-26
2023/04/04 09:26:27;;;;;;;3.70;2.50;;;;;;;0.11;78.72;99071.30;104859;1269;73532;-26
2023/04/04 09:28:56;;;;;;;3.50;2.80;;;;;;;-0.05;78.52;99063.68;104826;1263;75647;-25
2023/04/04 09:31:25;;;;;;;4.90;2.50;;;;;;;-0.26;78.65;99064.29;105056;1267;73521;-25
2023/04/04 09:33:53;;;;;;;4.90;2.90;;;;;;;-0.22;79.55;99068.23;105272;1263;61136;-25
2023/04/04 09:36:22;;;;;;;6.40;4.20;;;;;;;-0.35;79.66;99068.69;105250;1262;61580;-25
2023/04/04 09:38:51;;;;;;;4.80;3.20;;;;;;;-0.28;79.81;99070.31;105210;1265;74434;-26
2023/04/04 09:41:21;;;;;;;3.10;2.40;;;;;;;-0.10;78.63;99079.05;104862;1264;74893;-25
2023/04/04 09:43:52;;;;;;;3.60;1.50;;;;;;;0.24;76.86;99078.83;104863;1264;73741;-25
2023/04/04 09:46:22;;;;;;;3.80;3.00;;;;;;;0.30;77.36;99080.28;104904;1264;61121;-25
2023/04/04 09:48:50;;;;;;;3.80;2.80;;;;;;;0.02;78.09;99077.27;105177;1267;61905;-25
2023/04/04 09:51:19;;;;;;;2.40;1.80;;;;;;;-0.19;78.43;99075.27;104898;1264;74591;-25
2023/04/04 09:53:48;;;;;;;4.20;3.10;;;;;;;-0.38;79.67;99080.73;105127;1264;76184;-26
2023/04/04 09:56:17;;;;;;;6.00;3.40;;;;;;;-0.45;80.13;99074.36;104857;1264;74256;-25
2023/04/04 09:58:46;;;;;;;4.70;2.90;;;;;;;-0.58;80.05;99071.05;104715;1270;61154;-26
2023/04/04 10:01:30;;;;;;;4.20;2.60;;;;;;;-0.17;78.60;99074.35;104892;1266;61950;-26
2023/04/04 10:03:59;;;;;;;5.10;3.00;;;;;;;0.07;78.48;99068.17;104892;1264;74584;-26
2023/04/04 10:06:28;;;;;;;5.00;2.80;;;;;;;-0.13;78.88;99067.21;105183;1264;75927;-26
2023/04/04 10:08:58;;;;;;;3.50;2.40;;;;;;;-0.14;79.10;99062.99;104894;1264;74008;-26
2023/04/04 10:11:32;;;;;;;8.60;4.90;;;;;;;-0.41;80.26;99060.38;104907;1268;61159;-26
2023/04/04 10:14:04;;;;;;;5.90;3.40;;;;;;;-0.61;81.21;99060.95;104827;1264;62015;-26
2023/04/04 10:16:36;;;;;;;7.30;4.00;;;;;;;-0.20;80.73;99060.98;105364;1256;74647;-26
2023/04/04 10:19:08;;;;;;;4.00;2.70;;;;;;;0.18;78.33;99062.83;105280;1256;75926;-27
2023/04/04 10:21:42;;;;;;;5.70;3.20;;;;;;;0.30;77.27;99068.16;105394;1257;74396;-26
2023/04/04 10:24:10;;;;;;;5.40;3.90;;;;;;;0.29;78.57;99069.40;105266;1258;61259;-26
2023/04/04 10:26:39;;;;;;;3.10;2.40;;;;;;;0.05;79.24;99072.00;105464;1256;61137;-26
2023/04/04 10:29:09;;;;;;;5.70;2.80;;;;;;;0.02;80.20;99067.69;105587;1256;74614;-27
2023/04/04 10:31:39;;;;;;;3.90;2.50;;;;;;;-0.12;81.08;99066.67;105120;1262;75938;-26
2023/04/04 10:34:16;;;;;;;6.10;3.10;;;;;;;0.18;79.36;99068.98;105094;1258;75009;-25
2023/04/04 10:36:53;;;;;;;4.40;3.00;;;;;;;0.22;77.79;99070.52;105273;1257;61607;-26
2023/04/04 10:39:37;;;;;;;5.30;2.90;;;;;;;0.30;78.61;99074.31;105534;1256;61621;-26
2023/04/04 10:42:06;;;;;;;4.70;3.40;;;;;;;0.08;78.30;99074.43;105358;1256;74563;-26
2023/04/04 10:44:39;;;;;;;3.00;2.40;;;;;;;-0.25;79.53;99075.33;105533;1256;75777;-26
2023/04/04 10:47:20;;;;;;;3.00;2.40;;;;;;;-0.26;80.26;99074.51;105601;1256;73947;-26
2023/04/04 10:49:50;;;;;;;5.50;3.50;;;;;;;-0.13;80.35;99070.80;105411;1257;61407;-26
2023/04/04 10:52:20;;;;;;;7.10;3.70;;;;;;;0.17;79.42;99071.73;105315;1257;61166;-26
2023/04/04 10:54:54;;;;;;;4.80;3.60;;;;;;;0.21;78.33;99069.21;105250;1258;73602;-26
2023/04/04 10:57:23;;;;;;;3.00;2.40;;;;;;;0.23;78.10;99070.48;105259;1262;74915;-26
2023/04/04 10:59:57;;;;;;;3.10;2.40;;;;;;;0.27;78.26;99073.58;105523;1256;74206;-26
2023/04/04 11:02:50;;;;;;;14.40;6.00;;;;;;;0.09;78.03;99072.35;105552;1256;60992;-27
2023/04/04 11:05:27;;;;;;;4.50;3.20;;;;;;;-0.07;79.51;99073.15;105526;1256;60998;-26
2023/04/04 11:07:58;;;;;;;9.10;2.40;;;;;;;-0.17;79.84;99077.42;105598;1256;74577;-26
2023/04/04 11:10:50;;;;;;;;;;;;;;;0.02;78.48;99080.52;105519;1262;75622;-26
2023/04/04 11:13:22;;;;;;;6.40;4.60;;;;;;;0.40;76.94;99080.08;105630;1261;74136;-26
2023/04/04 11:15:58;;;;;;;6.00;2.90;;;;;;;0.23;77.06;99074.26;105444;1256;61062;-26
2023/04/04 11:18:31;;;;;;;4.80;3.30;;;;;;;0.32;77.29;99077.83;105522;1262;61949;-26
2023/04/04 11:21:02;;;;;;;7.40;3.80;;;;;;;0.30;78.00;99079.60;105625;1260;74387;-26
2023/04/04 11:23:49;;;;;;;3.30;2.00;;;;;;;0.07;78.59;99080.15;105642;1256;74624;-26
2023/04/04 11:26:26;;;;;;;2.60;1.90;;;;;;;0.08;78.92;99083.36;105269;1256;73183;-26
2023/04/04 11:29:06;;;;;;;3.00;2.30;;;;;;;0.18;78.15;99081.45;105437;1256;61018;-26
2023/04/04 11:31:46;;;;;;;3.20;1.90;;;;;;;0.61;76.49;99083.85;105264;1256;61472;-26
2023/04/04 11:34:29;;;;;;;5.60;3.60;;;;;;;0.44;76.06;99082.64;105296;1257;73361;-26
2023/04/04 11:37:00;;;;;;;4.00;2.40;;;;;;;0.33;76.38;99087.68;105258;1256;75860;-25
2023/04/04 11:39:30;;;;;;;4.30;2.30;;;;;;;0.30;76.91;99088.66;105610;1256;74049;-25
2023/04/04 11:42:13;;;;;;;6.40;3.30;;;;;;;0.27;77.41;99083.29;105273;1256;61174;-26
2023/04/04 11:44:51;;;;;;;7.10;3.60;;;;;;;0.07;77.58;99085.59;105333;1256;61213;-25
2023/04/04 11:47:22;;;;;;;3.40;2.10;;;;;;;0.01;78.86;99078.48;105615;1256;74296;-25
2023/04/04 11:49:52;;;;;;;7.70;3.10;;;;;;;0.64;77.81;99079.79;105329;1257;75852;-25
2023/04/04 11:52:22;;;;;;;5.60;3.50;;;;;;;0.75;76.31;99075.43;105296;1264;74129;-25
2023/04/04 11:54:51;;;;;;;2.90;2.00;;;;;;;0.63;76.50;99067.88;105620;1256;61147;-25